createdAt,value
2022-08-12T00:00:20.954Z,3.80
2022-08-12T00:06:04.140Z,4.32
2022-08-12T00:08:55.469Z,4.13
2022-08-12T00:11:41.786Z,4.35
2022-08-12T00:14:27.779Z,4.38
2022-08-12T00:19:58.300Z,3.83
2022-08-12T00:22:43.856Z,4.22
2022-08-12T00:26:05.661Z,4.45
2022-08-12T00:28:35.500Z,4.25
2022-08-12T00:31:21.077Z,4.80
2022-08-12T00:34:06.616Z,4.60
2022-08-12T00:36:52.097Z,4.22
2022-08-12T00:39:37.711Z,5.00
2022-08-12T00:42:10.888Z,4.93
2022-08-12T00:44:39.519Z,5.18
2022-08-12T00:47:06.430Z,5.75
2022-08-12T00:49:37.461Z,4.85
2022-08-12T00:52:06.770Z,5.15
2022-08-12T00:54:46.458Z,6.00
2022-08-12T00:57:20.369Z,5.93
2022-08-12T00:59:59.422Z,5.47
2022-08-12T01:02:35.577Z,5.57
2022-08-12T01:05:24.321Z,5.47
2022-08-12T01:08:10.682Z,5.97
2022-08-12T01:10:58.069Z,5.45
2022-08-12T01:13:25.758Z,6.60
2022-08-12T01:16:12.097Z,6.38
2022-08-12T01:18:40.361Z,6.35
2022-08-12T01:21:12.202Z,6.55
2022-08-12T01:24:00.565Z,6.00
2022-08-12T01:26:47.743Z,6.20
2022-08-12T01:29:20.134Z,6.68
2022-08-12T01:31:50.302Z,6.18
2022-08-12T01:34:35.704Z,6.57
2022-08-12T01:37:07.211Z,7.10
2022-08-12T01:40:33.473Z,6.25
2022-08-12T01:43:07.236Z,6.68
2022-08-12T01:45:43.213Z,6.45
2022-08-12T01:48:40.737Z,5.95
2022-08-12T01:52:15.188Z,6.13
2022-08-12T01:54:38.682Z,5.93
2022-08-12T01:59:59.115Z,6.07
2022-08-12T02:02:36.358Z,6.53
2022-08-12T02:05:55.028Z,7.00
2022-08-12T02:08:57.096Z,6.85
2022-08-12T02:11:30.329Z,6.82
2022-08-12T02:14:11.965Z,6.63
2022-08-12T02:16:41.810Z,6.50
2022-08-12T02:19:22.880Z,6.82
2022-08-12T02:22:26.578Z,7.75
2022-08-12T02:25:01.322Z,7.05
2022-08-12T02:27:34.118Z,6.40
2022-08-12T02:30:01.345Z,7.22
2022-08-12T02:32:28.148Z,6.50
2022-08-12T02:34:56.776Z,6.75
2022-08-12T02:37:24.872Z,6.75
2022-08-12T02:39:56.494Z,6.75
2022-08-12T02:42:25.069Z,6.47
2022-08-12T02:44:55.589Z,6.43
2022-08-12T02:48:00.078Z,6.63
2022-08-12T02:50:13.534Z,7.05
2022-08-12T02:52:42.311Z,6.93
2022-08-12T02:55:28.927Z,6.80
2022-08-12T02:58:09.085Z,7.60
2022-08-12T03:00:40.459Z,7.00
2022-08-12T03:03:13.414Z,6.65
2022-08-12T03:05:57.890Z,6.72
2022-08-12T03:08:32.511Z,7.22
2022-08-12T03:11:11.920Z,6.80
2022-08-12T03:13:51.888Z,6.85
2022-08-12T03:16:20.780Z,6.75
2022-08-12T03:18:49.055Z,7.63
2022-08-12T03:21:52.713Z,6.80
2022-08-12T03:24:07.157Z,7.10
2022-08-12T03:26:36.466Z,6.88
2022-08-12T03:29:06.793Z,6.90
2022-08-12T03:31:34.030Z,7.15
2022-08-12T03:34:10.351Z,6.70
2022-08-12T03:36:39.892Z,7.18
2022-08-12T03:39:41.164Z,6.70
2022-08-12T03:42:19.546Z,6.82
2022-08-12T03:45:13.629Z,6.43
2022-08-12T03:48:13.373Z,7.13
2022-08-12T03:51:05.761Z,6.88
2022-08-12T03:53:52.259Z,7.57
2022-08-12T03:56:38.210Z,7.45
2022-08-12T04:01:57.544Z,7.72
2022-08-12T04:04:28.541Z,6.55
2022-08-12T04:06:58.054Z,7.90
2022-08-12T04:09:25.166Z,7.40
2022-08-12T04:12:10.603Z,7.38
2022-08-12T04:14:37.732Z,6.82
2022-08-12T04:17:04.820Z,7.00
2022-08-12T04:19:31.902Z,6.75
2022-08-12T04:22:02.383Z,7.00
2022-08-12T04:24:35.499Z,7.10
2022-08-12T04:27:05.426Z,6.97
2022-08-12T04:30:16.396Z,7.05
2022-08-12T04:32:19.537Z,6.88
2022-08-12T04:34:46.610Z,6.93
2022-08-12T04:37:13.672Z,6.93
2022-08-12T04:39:40.765Z,6.40
2022-08-12T04:42:07.952Z,6.28
2022-08-12T04:44:34.742Z,6.50
2022-08-12T04:47:01.613Z,6.47
2022-08-12T04:49:30.197Z,7.30
2022-08-12T04:51:59.068Z,7.20
2022-08-12T04:54:27.657Z,10.15
2022-08-12T04:57:04.101Z,10.60
2022-08-12T04:59:47.252Z,9.43
2022-08-12T05:02:20.884Z,8.02
2022-08-12T05:04:56.257Z,6.80
2022-08-12T05:07:27.814Z,6.45
2022-08-12T05:10:01.103Z,5.70
2022-08-12T05:12:37.167Z,5.93
2022-08-12T05:15:19.368Z,6.03
2022-08-12T05:17:52.783Z,5.60
2022-08-12T05:20:22.638Z,5.35
2022-08-12T05:22:53.287Z,5.70
2022-08-12T05:25:25.124Z,4.97
2022-08-12T05:27:58.413Z,5.38
2022-08-12T05:30:30.946Z,5.30
2022-08-12T05:33:00.195Z,4.97
2022-08-12T05:35:27.953Z,4.18
2022-08-12T05:38:14.785Z,4.38
2022-08-12T05:40:42.030Z,4.38
2022-08-12T05:43:09.022Z,3.92
2022-08-12T05:45:37.412Z,4.13
2022-08-12T05:48:06.504Z,4.13
2022-08-12T05:50:35.365Z,3.80
2022-08-12T05:53:02.436Z,4.15
2022-08-12T05:55:31.305Z,3.90
2022-08-12T05:57:58.882Z,4.65
2022-08-12T06:00:26.518Z,3.95
2022-08-12T06:03:01.314Z,4.00
2022-08-12T06:05:54.247Z,3.90
2022-08-12T06:08:23.445Z,3.88
2022-08-12T06:10:50.993Z,3.60
2022-08-12T06:13:28.920Z,3.50
2022-08-12T06:16:07.394Z,3.53
2022-08-12T06:18:34.658Z,3.97
2022-08-12T06:21:02.280Z,3.20
2022-08-12T06:23:30.349Z,3.25
2022-08-12T06:25:58.768Z,2.85
2022-08-12T06:28:26.121Z,3.30
2022-08-12T06:31:15.266Z,2.95
2022-08-12T06:33:59.817Z,3.58
2022-08-12T06:36:33.367Z,3.58
2022-08-12T06:39:01.019Z,3.08
2022-08-12T06:42:04.413Z,2.78
2022-08-12T06:44:33.276Z,2.83
2022-08-12T06:47:00.384Z,2.75
2022-08-12T06:49:28.397Z,2.83
2022-08-12T06:51:56.944Z,2.90
2022-08-12T06:54:31.228Z,3.03
2022-08-12T06:57:04.742Z,2.63
2022-08-12T06:59:50.414Z,2.67
2022-08-12T07:02:18.493Z,3.10
2022-08-12T07:04:47.467Z,2.53
2022-08-12T07:07:14.730Z,2.70
2022-08-12T07:10:06.762Z,3.00
2022-08-12T07:12:29.894Z,2.70
2022-08-12T07:14:58.617Z,2.67
2022-08-12T07:17:26.433Z,2.67
2022-08-12T07:19:55.513Z,2.72
2022-08-12T07:22:24.872Z,2.90
2022-08-12T07:25:11.610Z,2.72
2022-08-12T07:27:46.668Z,2.83
2022-08-12T07:30:14.383Z,3.00
2022-08-12T07:32:41.448Z,3.10
2022-08-12T07:35:08.665Z,2.50
2022-08-12T07:37:41.937Z,2.65
2022-08-12T07:40:11.730Z,2.40
2022-08-12T07:42:40.311Z,2.60
2022-08-12T07:45:09.556Z,2.58
2022-08-12T07:47:37.975Z,2.75
2022-08-12T07:50:09.271Z,2.10
2022-08-12T07:52:38.733Z,2.03
2022-08-12T07:55:06.901Z,2.28
2022-08-12T07:57:34.367Z,2.47
2022-08-12T08:00:06.663Z,2.80
2022-08-12T08:02:33.803Z,2.30
2022-08-12T08:05:01.284Z,2.25
2022-08-12T08:07:30.714Z,2.50
2022-08-12T08:09:59.493Z,2.30
2022-08-12T08:12:47.258Z,2.70
2022-08-12T08:15:15.590Z,2.65
2022-08-12T08:18:01.855Z,2.10
2022-08-12T08:20:35.510Z,2.70
2022-08-12T08:23:08.961Z,2.35
2022-08-12T08:25:38.682Z,2.58
2022-08-12T08:28:09.803Z,2.47
2022-08-12T08:30:39.359Z,2.63
2022-08-12T08:33:23.797Z,2.15
2022-08-12T08:35:56.088Z,2.50
2022-08-12T08:38:32.295Z,2.17
2022-08-12T08:42:18.804Z,2.20
2022-08-12T08:44:06.425Z,2.70
2022-08-12T08:46:37.744Z,2.50
2022-08-12T08:49:05.512Z,2.30
2022-08-12T08:51:32.641Z,2.08
2022-08-12T08:53:59.501Z,2.47
2022-08-12T08:56:27.195Z,2.55
2022-08-12T08:58:53.951Z,2.47
2022-08-12T09:01:22.504Z,2.70
2022-08-12T09:06:39.611Z,2.30
2022-08-12T09:12:27.569Z,2.60
2022-08-12T09:14:54.685Z,2.10
2022-08-12T09:17:22.528Z,2.00
2022-08-12T09:19:55.149Z,2.20
2022-08-12T09:24:59.782Z,2.15
2022-08-12T09:28:04.274Z,2.33
2022-08-12T09:30:17.823Z,2.13
2022-08-12T09:33:19.052Z,2.30
2022-08-12T09:36:04.320Z,2.10
2022-08-12T09:38:33.750Z,2.42
2022-08-12T09:42:35.064Z,2.28
2022-08-12T09:44:39.051Z,2.25
2022-08-12T09:46:56.049Z,2.13
2022-08-12T09:49:25.062Z,2.20
2022-08-12T09:51:55.235Z,1.95
2022-08-12T09:54:33.773Z,2.28
2022-08-12T09:58:46.969Z,2.65
2022-08-12T10:00:14.810Z,2.15
2022-08-12T10:03:01.629Z,2.30
2022-08-12T10:06:19.134Z,2.50
2022-08-12T10:08:22.038Z,2.13
2022-08-12T10:11:08.937Z,2.13
2022-08-12T10:13:47.039Z,2.60
2022-08-12T10:16:23.595Z,2.13
2022-08-12T10:19:17.140Z,2.35
2022-08-12T10:21:45.525Z,2.05
2022-08-12T10:24:20.353Z,2.30
2022-08-12T10:27:06.482Z,1.88
2022-08-12T10:30:38.842Z,2.20
2022-08-12T10:32:44.080Z,2.40
2022-08-12T10:35:15.638Z,2.08
2022-08-12T10:38:39.022Z,2.42
2022-08-12T10:40:33.957Z,2.40
2022-08-12T10:43:19.968Z,2.30
2022-08-12T10:45:49.604Z,2.00
2022-08-12T10:48:33.167Z,1.95
2022-08-12T10:52:03.690Z,1.85
2022-08-12T10:54:00.576Z,2.60
2022-08-12T10:56:35.021Z,2.15
2022-08-12T10:59:10.569Z,2.00
2022-08-12T11:04:17.455Z,2.08
2022-08-12T11:04:45.209Z,2.00
2022-08-12T11:08:35.166Z,2.00
2022-08-12T11:10:02.415Z,2.10
2022-08-12T11:12:55.297Z,2.17
2022-08-12T11:15:33.355Z,2.10
2022-08-12T11:18:07.726Z,2.08
2022-08-12T11:20:39.338Z,1.77
2022-08-12T11:23:25.776Z,1.92
2022-08-12T11:25:57.627Z,1.80
2022-08-12T11:28:33.816Z,1.90
2022-08-12T11:31:02.300Z,2.00
2022-08-12T11:34:06.678Z,1.70
2022-08-12T11:36:17.361Z,1.90
2022-08-12T11:38:50.910Z,1.88
2022-08-12T11:41:30.943Z,1.95
2022-08-12T11:44:35.322Z,2.17
2022-08-12T11:46:51.397Z,1.88
2022-08-12T11:49:30.550Z,2.40
2022-08-12T11:52:01.073Z,2.03
2022-08-12T11:54:29.492Z,1.98
2022-08-12T11:56:59.865Z,2.28
2022-08-12T12:02:10.397Z,2.05
2022-08-12T12:04:37.763Z,2.20
2022-08-12T12:07:07.224Z,2.20
2022-08-12T12:09:52.837Z,2.00
2022-08-12T12:12:25.022Z,2.03
2022-08-12T12:14:54.458Z,1.90
2022-08-12T12:17:23.790Z,2.70
2022-08-12T12:19:51.189Z,2.20
2022-08-12T12:22:23.371Z,2.25
2022-08-12T12:24:54.350Z,1.95
2022-08-12T12:28:03.713Z,2.40
2022-08-12T12:30:17.613Z,1.73
2022-08-12T12:32:53.536Z,2.10
2022-08-12T12:36:18.385Z,2.40
2022-08-12T12:38:12.535Z,2.13
2022-08-12T12:40:41.623Z,2.08
2022-08-12T12:43:12.565Z,2.33
2022-08-12T12:45:44.578Z,2.13
2022-08-12T12:48:18.151Z,2.45
2022-08-12T12:51:12.073Z,2.20
2022-08-12T12:54:06.982Z,2.22
2022-08-12T12:56:34.799Z,2.60
2022-08-12T12:59:03.761Z,2.35
2022-08-12T13:01:33.990Z,2.25
2022-08-12T13:04:12.382Z,1.98
2022-08-12T13:06:41.930Z,2.47
2022-08-12T13:09:13.187Z,2.65
2022-08-12T13:11:44.364Z,3.13
2022-08-12T13:14:28.596Z,2.20
2022-08-12T13:17:02.375Z,2.53
2022-08-12T13:19:37.584Z,2.47
2022-08-12T13:22:20.740Z,2.20
2022-08-12T13:24:57.014Z,2.35
2022-08-12T13:27:34.993Z,2.28
2022-08-12T13:30:06.742Z,1.90
2022-08-12T13:32:37.684Z,1.92
2022-08-12T13:35:19.888Z,2.30
2022-08-12T13:37:55.741Z,2.30
2022-08-12T13:40:31.221Z,2.55
2022-08-12T13:42:59.713Z,2.00
2022-08-12T13:45:31.439Z,2.35
2022-08-12T13:48:04.348Z,2.35
2022-08-12T13:50:36.384Z,2.00
2022-08-12T13:53:24.223Z,2.08
2022-08-12T13:56:01.398Z,1.85
2022-08-12T13:58:30.800Z,1.92
2022-08-12T14:01:04.595Z,1.95
2022-08-12T14:03:51.182Z,2.13
2022-08-12T14:06:19.477Z,2.00
2022-08-12T14:08:49.831Z,1.92
2022-08-12T14:11:18.241Z,2.10
2022-08-12T14:14:04.681Z,2.33
2022-08-12T14:16:48.421Z,2.03
2022-08-12T14:19:24.551Z,2.20
2022-08-12T14:22:00.725Z,2.20
2022-08-12T14:24:35.678Z,2.25
2022-08-12T14:27:09.201Z,2.10
2022-08-12T14:30:06.221Z,1.80
2022-08-12T14:32:32.615Z,1.92
2022-08-12T14:34:59.368Z,1.92
2022-08-12T14:37:56.473Z,2.00
2022-08-12T14:40:18.493Z,2.35
2022-08-12T14:42:47.011Z,3.90
2022-08-12T14:45:14.560Z,2.13
2022-08-12T14:47:49.987Z,2.38
2022-08-12T14:50:57.372Z,2.53
2022-08-12T14:59:23.473Z,2.20
2022-08-12T15:01:52.220Z,2.38
2022-08-12T15:04:28.502Z,2.90
2022-08-12T15:09:27.260Z,2.47
2022-08-12T15:12:04.120Z,2.28
2022-08-12T15:14:32.010Z,2.50
2022-08-12T15:17:00.331Z,2.35
2022-08-12T15:20:11.476Z,2.70
2022-08-12T15:22:36.995Z,2.38
2022-08-12T15:25:07.771Z,2.17
2022-08-12T15:28:05.684Z,2.20
2022-08-12T15:30:30.722Z,7.15
2022-08-12T15:32:57.633Z,2.58
2022-08-12T15:35:38.323Z,2.20
2022-08-12T15:38:19.694Z,2.00
2022-08-12T15:40:49.765Z,1.95
2022-08-12T15:43:51.704Z,2.17
2022-08-12T15:46:06.364Z,2.30
2022-08-12T15:48:34.151Z,2.50
2022-08-12T15:51:03.069Z,2.40
2022-08-12T15:53:53.083Z,2.08
2022-08-12T15:56:29.303Z,1.90
2022-08-12T15:58:59.067Z,2.25
2022-08-12T16:01:34.996Z,1.88
2022-08-12T16:04:05.342Z,2.00
2022-08-12T16:09:45.447Z,2.53
2022-08-12T16:12:11.278Z,2.08
2022-08-12T16:14:39.291Z,2.22
2022-08-12T16:17:08.941Z,2.22
2022-08-12T16:20:02.927Z,1.67
2022-08-12T16:22:25.747Z,1.90
2022-08-12T16:24:54.109Z,1.92
2022-08-12T16:27:23.756Z,2.05
2022-08-12T16:29:57.178Z,2.60
2022-08-12T16:32:31.183Z,2.42
2022-08-12T16:34:59.828Z,2.28
2022-08-12T16:37:32.839Z,2.10
2022-08-12T16:40:14.949Z,1.67
2022-08-12T16:42:53.282Z,1.92
2022-08-12T16:46:04.083Z,1.70
2022-08-12T16:48:11.379Z,1.80
2022-08-12T16:51:04.002Z,2.05
2022-08-12T16:53:44.549Z,2.15
2022-08-12T16:56:15.235Z,1.85
2022-08-12T16:58:43.520Z,1.60
2022-08-12T17:01:14.495Z,1.92
2022-08-12T17:03:52.569Z,2.20
2022-08-12T17:06:27.261Z,2.33
2022-08-12T17:09:02.656Z,1.80
2022-08-12T17:13:59.489Z,1.88
2022-08-12T17:16:30.318Z,1.80
2022-08-12T17:18:59.749Z,2.28
2022-08-12T17:21:41.487Z,1.73
2022-08-12T17:24:30.355Z,2.10
2022-08-12T17:26:59.703Z,2.05
2022-08-12T17:30:00.868Z,1.85
2022-08-12T17:32:14.679Z,2.63
2022-08-12T17:35:00.576Z,3.50
2022-08-12T17:37:27.812Z,2.40
2022-08-12T17:40:10.811Z,1.90
2022-08-12T17:42:43.637Z,2.30
2022-08-12T17:45:19.306Z,2.30
2022-08-12T17:47:59.988Z,2.33
2022-08-12T17:50:29.563Z,2.30
2022-08-12T17:53:02.565Z,2.40
2022-08-12T17:55:44.032Z,2.15
2022-08-12T17:58:35.610Z,2.00
2022-08-12T18:01:06.180Z,2.53
2022-08-12T18:04:04.203Z,2.83
2022-08-12T18:06:27.874Z,2.50
2022-08-12T18:08:58.684Z,2.00
2022-08-12T18:12:04.182Z,1.83
2022-08-12T18:14:32.513Z,2.10
2022-08-12T18:17:01.128Z,2.20
2022-08-12T18:19:48.603Z,1.98
2022-08-12T18:22:22.215Z,2.35
2022-08-12T18:25:00.775Z,3.03
2022-08-12T18:27:44.922Z,2.90
2022-08-12T18:30:20.362Z,2.88
2022-08-12T18:32:58.361Z,2.20
2022-08-12T18:35:46.332Z,2.20
2022-08-12T18:38:16.716Z,3.17
2022-08-12T18:41:04.138Z,2.38
2022-08-12T18:43:57.677Z,2.28
2022-08-12T18:46:27.460Z,2.30
2022-08-12T18:49:16.865Z,2.67
2022-08-12T18:51:55.304Z,2.22
2022-08-12T18:54:49.404Z,2.85
2022-08-12T18:58:06.794Z,2.70
2022-08-12T19:00:18.838Z,2.58
2022-08-12T19:02:50.976Z,2.63
2022-08-12T19:05:17.927Z,2.50
2022-08-12T19:08:00.820Z,2.47
2022-08-12T19:10:30.516Z,2.80
2022-08-12T19:13:21.167Z,2.30
2022-08-12T19:15:54.936Z,2.28
2022-08-12T19:18:30.179Z,2.33
2022-08-12T19:21:12.012Z,2.50
2022-08-12T19:23:43.599Z,2.33
2022-08-12T19:26:12.485Z,2.83
2022-08-12T19:28:40.599Z,2.33
2022-08-12T19:31:55.414Z,2.53
2022-08-12T19:38:04.433Z,2.30
2022-08-12T19:40:31.737Z,2.47
2022-08-12T19:43:21.839Z,2.35
2022-08-12T19:45:56.716Z,2.10
2022-08-12T19:48:30.288Z,2.58
2022-08-12T19:50:58.002Z,2.22
2022-08-12T19:53:27.696Z,2.30
2022-08-12T19:55:56.412Z,2.38
2022-08-12T19:58:25.410Z,18.27
2022-08-12T20:00:55.197Z,18.00
2022-08-12T20:03:38.433Z,2.58
2022-08-12T20:06:14.243Z,2.85
2022-08-12T20:08:48.806Z,2.45
2022-08-12T20:12:09.323Z,2.83
2022-08-12T20:14:11.525Z,3.08
2022-08-12T20:16:52.637Z,2.67
2022-08-12T20:19:52.164Z,2.78
2022-08-12T20:22:14.577Z,4.05
2022-08-12T20:24:42.451Z,3.20
2022-08-12T20:27:28.636Z,2.85
2022-08-12T20:29:59.580Z,2.58
2022-08-12T20:32:29.766Z,2.42
2022-08-12T20:35:19.681Z,2.22
2022-08-12T20:38:06.323Z,2.10
2022-08-12T20:40:34.738Z,2.38
2022-08-12T20:43:06.604Z,2.88
2022-08-12T20:45:50.797Z,2.70
2022-08-12T20:48:24.138Z,2.47
2022-08-12T20:50:54.133Z,2.70
2022-08-12T20:53:32.914Z,2.33
2022-08-12T20:56:30.209Z,2.25
2022-08-12T20:59:00.995Z,2.35
2022-08-12T21:01:28.991Z,2.58
2022-08-12T21:04:22.766Z,2.30
2022-08-12T21:07:09.220Z,2.75
2022-08-12T21:09:44.316Z,2.53
2022-08-12T21:12:31.117Z,2.30
2022-08-12T21:15:23.285Z,2.40
2022-08-12T21:18:11.280Z,2.70
2022-08-12T21:20:52.757Z,2.15
2022-08-12T21:23:21.512Z,2.38
2022-08-12T21:25:50.972Z,2.33
2022-08-12T21:28:20.693Z,2.17
2022-08-12T21:30:54.719Z,2.55
2022-08-12T21:33:58.560Z,2.78
2022-08-12T21:36:32.259Z,3.05
2022-08-12T21:39:18.691Z,2.35
2022-08-12T21:41:53.291Z,2.88
2022-08-12T21:45:44.240Z,2.63
2022-08-12T21:47:20.136Z,2.70
2022-08-12T21:50:02.975Z,3.50
2022-08-12T21:52:40.718Z,2.90
2022-08-12T21:55:17.237Z,2.70
2022-08-12T21:57:54.520Z,3.13
2022-08-12T22:00:32.203Z,3.13
2022-08-12T22:04:02.141Z,7.50
2022-08-12T22:06:25.929Z,3.00
2022-08-12T22:09:03.955Z,3.10
2022-08-12T22:11:42.228Z,3.50
2022-08-12T22:14:21.229Z,3.22
2022-08-12T22:16:52.681Z,3.42
2022-08-12T22:19:21.049Z,4.22
2022-08-12T22:21:54.649Z,3.15
2022-08-12T22:24:26.936Z,3.22
2022-08-12T22:27:23.021Z,3.17
2022-08-12T22:30:07.600Z,3.60
2022-08-12T22:32:47.389Z,3.80
2022-08-12T22:35:56.607Z,3.28
2022-08-12T22:38:26.578Z,3.75
2022-08-12T22:41:00.794Z,3.58
2022-08-12T22:44:00.709Z,4.17
2022-08-12T22:46:33.181Z,4.10
2022-08-12T22:49:00.130Z,3.63
2022-08-12T22:51:38.216Z,3.97
2022-08-12T22:54:35.709Z,4.03
2022-08-12T22:57:05.089Z,3.70
2022-08-12T22:59:33.759Z,3.97
2022-08-12T23:02:28.540Z,3.60
2022-08-12T23:04:56.765Z,4.38
2022-08-12T23:07:24.441Z,4.05
2022-08-12T23:09:51.462Z,3.95
2022-08-12T23:12:46.606Z,4.00
2022-08-12T23:15:14.500Z,3.67
2022-08-12T23:17:41.974Z,4.25
2022-08-12T23:20:11.255Z,4.05
2022-08-12T23:22:40.047Z,3.85
2022-08-12T23:25:21.137Z,4.07
2022-08-12T23:28:29.735Z,4.97
2022-08-12T23:31:04.291Z,5.20
2022-08-12T23:34:00.681Z,4.65
2022-08-12T23:36:31.684Z,4.55
2022-08-12T23:40:15.027Z,4.85
2022-08-12T23:42:17.967Z,4.60
2022-08-12T23:44:44.392Z,4.88
2022-08-12T23:47:12.658Z,4.63
2022-08-12T23:49:57.634Z,5.22
2022-08-12T23:52:34.244Z,4.85
2022-08-12T23:55:23.571Z,5.78
2022-08-12T23:58:18.496Z,5.32
